Terminal Aerodrome Forecast
Issued by NWS Wilmington, NC

Current Version | Previous Version | Graphics & Text | Print | Product List | Glossary Off
Versions: 1 2 3 4 5 6 7 8 9 10 11 12 13 14 15 16 17

000
FTUS42 KILM 241100
TAFLBT
TAF
KLBT 241120Z 2412/2512 02004KT P6SM SKC
     FM241300 06010KT P6SM SKC
     FM242000 17006KT P6SM SKC
     FM250200 VRB03KT P6SM SKC=

USA.gov is the U.S. government's official web portal to all federal, state and local government web resources and services.